Time;durP1;ratioP1;P1;durP2;ratioP2;P2;SDS_P1;SDS_P2;PMS_P1;PMS_P2;Temp;Humidity;BMP_temperature;BMP_pressure;BME280_temperature;BME280_humidity;BME280_pressure;Samples;Min_cycle;Max_cycle;Signal;HPM_P1;HPM_P2
2021/04/18 00:01:44;;;;;;;17.13;8.65;;;;;;;5.99;nan;102176.75;4983688;28;20022;-77
2021/04/18 00:04:09;;;;;;;19.00;8.23;;;;;;;5.98;nan;102174.25;4978429;28;20041;-77
2021/04/18 00:06:37;;;;;;;22.65;9.02;;;;;;;5.79;nan;102172.94;4974439;28;20423;-77
2021/04/18 00:09:07;;;;;;;20.75;8.60;;;;;;;5.77;nan;102185.59;4998717;28;20025;-77
2021/04/18 00:11:33;;;;;;;22.73;9.23;;;;;;;5.64;nan;102188.84;4996212;28;20040;-77
2021/04/18 00:13:59;;;;;;;22.38;10.25;;;;;;;5.35;nan;102191.41;5003748;28;20182;-77
2021/04/18 00:16:25;;;;;;;28.65;10.90;;;;;;;5.41;nan;102190.72;4986556;28;20582;-77
2021/04/18 00:18:50;;;;;;;19.52;8.50;;;;;;;5.44;nan;102182.38;4989242;28;20084;-79
2021/04/18 00:21:16;;;;;;;17.42;8.45;;;;;;;5.48;nan;102175.69;4987412;28;20073;-77
2021/04/18 00:23:43;;;;;;;22.25;9.27;;;;;;;5.46;nan;102177.72;4985874;28;20117;-78
2021/04/18 00:26:08;;;;;;;21.90;8.75;;;;;;;5.47;nan;102171.41;5005144;28;20110;-76
2021/04/18 00:28:34;;;;;;;19.35;8.88;;;;;;;5.43;nan;102162.97;5001726;28;20136;-76
2021/04/18 00:30:59;;;;;;;21.40;9.88;;;;;;;5.36;nan;102158.53;5005166;28;20097;-77
2021/04/18 00:33:25;;;;;;;21.50;9.63;;;;;;;5.40;nan;102155.34;4985117;28;20045;-78
2021/04/18 00:35:51;;;;;;;21.20;8.73;;;;;;;5.37;nan;102150.38;5004351;28;20018;-77
2021/04/18 00:38:18;;;;;;;20.85;8.65;;;;;;;5.31;nan;102144.94;5008980;28;20103;-78
2021/04/18 00:40:43;;;;;;;19.20;8.85;;;;;;;5.32;nan;102147.44;4999590;28;20030;-77
2021/04/18 00:43:10;;;;;;;22.15;9.43;;;;;;;5.19;nan;102139.22;4999913;28;20543;-77
2021/04/18 00:45:35;;;;;;;25.17;9.18;;;;;;;5.18;nan;102144.72;4988999;28;20096;-80
2021/04/18 00:48:02;;;;;;;18.83;8.43;;;;;;;5.14;nan;102153.06;5004907;28;20022;-76
2021/04/18 00:50:38;;;;;;;21.58;9.45;;;;;;;5.05;nan;102151.47;5006788;28;20025;-77
2021/04/18 00:53:05;;;;;;;23.70;8.88;;;;;;;4.96;nan;102147.22;4986112;28;20397;-77
2021/04/18 00:55:33;;;;;;;21.45;10.07;;;;;;;4.90;nan;102147.09;4987281;28;20025;-79
2021/04/18 00:57:59;;;;;;;23.98;9.15;;;;;;;4.93;nan;102155.53;4997865;28;20034;-77
2021/04/18 01:00:26;;;;;;;23.08;9.73;;;;;;;4.83;nan;102152.25;4996937;28;22400;-77
2021/04/18 01:02:52;;;;;;;28.33;11.30;;;;;;;4.78;nan;102157.28;4993428;28;20022;-76
2021/04/18 01:05:18;;;;;;;23.20;9.38;;;;;;;4.71;nan;102153.69;4995888;28;20096;-77
2021/04/18 01:07:43;;;;;;;24.40;9.70;;;;;;;4.65;nan;102154.38;4999598;28;20034;-77
2021/04/18 01:10:13;;;;;;;21.65;10.15;;;;;;;4.62;nan;102165.34;4982442;28;20026;-77
2021/04/18 01:12:39;;;;;;;23.63;10.13;;;;;;;4.62;nan;102163.50;4993227;28;20429;-77
2021/04/18 01:15:08;;;;;;;28.00;10.07;;;;;;;4.58;nan;102161.38;4980252;28;20030;-78
2021/04/18 01:17:33;;;;;;;31.88;10.15;;;;;;;4.61;nan;102158.38;4999797;28;20030;-77
2021/04/18 01:19:59;;;;;;;34.03;11.48;;;;;;;4.61;nan;102163.69;4997182;28;20025;-78
2021/04/18 01:22:25;;;;;;;25.63;10.57;;;;;;;4.49;nan;102157.97;4984597;28;20125;-77
2021/04/18 01:24:50;;;;;;;29.23;12.32;;;;;;;4.44;nan;102162.94;4993539;28;20473;-77
2021/04/18 01:27:19;;;;;;;24.35;9.77;;;;;;;4.49;nan;102166.75;4993995;28;20034;-77
2021/04/18 01:29:45;;;;;;;26.33;9.88;;;;;;;4.55;nan;102174.00;4971605;28;20158;-77
2021/04/18 01:32:10;;;;;;;24.38;9.65;;;;;;;4.54;nan;102168.88;4985328;28;20030;-76
2021/04/18 01:34:41;;;;;;;24.35;9.93;;;;;;;4.55;nan;102175.84;5001333;28;20061;-79
2021/04/18 01:37:07;;;;;;;21.63;8.88;;;;;;;4.55;nan;102171.34;4996910;28;20093;-77
2021/04/18 01:39:34;;;;;;;22.65;9.50;;;;;;;4.58;nan;102159.56;4979293;28;20404;-77
2021/04/18 01:42:00;;;;;;;33.97;10.25;;;;;;;4.58;nan;102162.22;4983251;28;20116;-77
2021/04/18 01:44:25;;;;;;;31.17;10.82;;;;;;;4.55;nan;102163.41;5004194;28;20044;-77
2021/04/18 01:46:51;;;;;;;25.67;9.35;;;;;;;4.53;nan;102161.91;4997057;28;20634;-77
2021/04/18 01:49:17;;;;;;;28.25;9.65;;;;;;;4.49;nan;102166.75;5004983;28;20030;-77
2021/04/18 01:51:42;;;;;;;24.98;9.60;;;;;;;4.43;nan;102178.03;4989393;28;20029;-77
2021/04/18 01:54:08;;;;;;;24.75;10.95;;;;;;;4.28;nan;102174.44;5007596;28;20030;-76
2021/04/18 01:56:33;;;;;;;29.83;10.75;;;;;;;4.20;nan;102171.84;5000304;28;20034;-77
2021/04/18 01:58:59;;;;;;;38.20;10.95;;;;;;;4.16;nan;102162.56;5006216;28;20075;-77
2021/04/18 02:01:25;;;;;;;31.00;10.52;;;;;;;4.18;nan;102166.72;5010061;28;20095;-77
2021/04/18 02:03:51;;;;;;;35.70;11.65;;;;;;;4.15;nan;102179.50;5008114;28;20374;-78
2021/04/18 02:06:16;;;;;;;28.98;10.65;;;;;;;4.13;nan;102182.31;5004111;28;20033;-76
2021/04/18 02:08:42;;;;;;;27.92;10.02;;;;;;;4.02;nan;102172.06;4986813;28;20080;-77
2021/04/18 02:11:08;;;;;;;27.77;10.07;;;;;;;3.84;nan;102172.25;5010220;28;20033;-76
2021/04/18 02:13:33;;;;;;;32.92;11.50;;;;;;;3.75;nan;102164.47;4986137;28;20034;-76
2021/04/18 02:15:59;;;;;;;44.47;13.35;;;;;;;3.72;nan;102172.78;5001604;28;20034;-79
2021/04/18 02:18:24;;;;;;;43.28;13.20;;;;;;;3.72;nan;102167.47;5002648;28;20053;-76
2021/04/18 02:20:50;;;;;;;52.60;12.05;;;;;;;3.77;nan;102176.59;4985892;28;20383;-76
2021/04/18 02:23:16;;;;;;;43.20;13.45;;;;;;;3.72;nan;102173.59;5003720;28;20022;-77
2021/04/18 02:25:42;;;;;;;43.30;12.60;;;;;;;3.71;nan;102190.50;5007510;28;20022;-77
2021/04/18 02:28:08;;;;;;;39.75;11.07;;;;;;;3.78;nan;102180.06;4987602;28;20050;-77
2021/04/18 02:30:33;;;;;;;36.08;11.63;;;;;;;3.70;nan;102186.19;5008102;28;20485;-79
2021/04/18 02:32:59;;;;;;;46.47;14.10;;;;;;;3.70;nan;102180.06;5005481;28;20112;-76
2021/04/18 02:35:26;;;;;;;46.95;12.88;;;;;;;3.73;nan;102172.59;5006959;28;20091;-77
2021/04/18 02:37:52;;;;;;;48.78;13.75;;;;;;;3.73;nan;102169.94;5006563;28;20030;-77
2021/04/18 02:40:17;;;;;;;45.45;13.95;;;;;;;3.75;nan;102162.66;5001365;28;20464;-77
2021/04/18 02:42:44;;;;;;;52.75;12.82;;;;;;;3.76;nan;102155.53;5005695;28;20427;-77
2021/04/18 02:45:10;;;;;;;46.10;12.95;;;;;;;3.77;nan;102152.75;4997268;28;20101;-78
2021/04/18 02:47:37;;;;;;;42.53;12.88;;;;;;;3.81;nan;102150.56;4986196;28;20198;-80
2021/04/18 02:50:07;;;;;;;47.85;13.00;;;;;;;3.69;nan;102157.22;4984671;28;20247;-78
2021/04/18 02:52:33;;;;;;;39.40;11.90;;;;;;;3.73;nan;102145.25;4986317;28;20061;-79
2021/04/18 02:54:59;;;;;;;53.38;13.52;;;;;;;3.76;nan;102145.75;4998038;28;20057;-77
2021/04/18 02:57:25;;;;;;;47.72;13.45;;;;;;;3.77;nan;102138.63;4998045;28;20460;-77
2021/04/18 02:59:51;;;;;;;46.28;12.25;;;;;;;3.81;nan;102135.50;4978094;28;20459;-77
2021/04/18 03:02:17;;;;;;;46.58;13.15;;;;;;;3.81;nan;102137.31;4976624;28;20022;-77
2021/04/18 03:04:43;;;;;;;42.42;11.73;;;;;;;3.81;nan;102135.50;5004167;28;20392;-77
2021/04/18 03:07:08;;;;;;;28.33;10.38;;;;;;;3.82;nan;102131.00;5010551;28;20164;-76
2021/04/18 03:09:34;;;;;;;33.08;10.65;;;;;;;3.81;nan;102132.84;5003002;28;20033;-77
2021/04/18 03:12:00;;;;;;;30.40;9.55;;;;;;;3.81;nan;102135.50;5002963;28;20026;-77
2021/04/18 03:14:25;;;;;;;38.30;11.15;;;;;;;3.81;nan;102132.84;5003890;28;22015;-77
2021/04/18 03:16:51;;;;;;;31.08;11.93;;;;;;;3.81;nan;102145.28;4990642;28;20080;-77
2021/04/18 03:19:16;;;;;;;24.40;11.45;;;;;;;3.92;nan;102144.88;4990566;28;20026;-76
2021/04/18 03:21:42;;;;;;;29.77;12.63;;;;;;;3.95;nan;102136.63;4989683;28;20121;-78
2021/04/18 03:24:08;;;;;;;28.88;11.93;;;;;;;4.01;nan;102143.88;5005783;28;20166;-76
2021/04/18 03:26:33;;;;;;;25.33;11.73;;;;;;;3.99;nan;102145.88;4981945;28;20488;-77
2021/04/18 03:28:59;;;;;;;34.35;14.38;;;;;;;4.07;nan;102150.31;4980296;28;20116;-77
2021/04/18 03:31:24;;;;;;;36.65;14.18;;;;;;;4.09;nan;102138.53;4997597;28;20099;-76
2021/04/18 03:33:50;;;;;;;34.80;13.48;;;;;;;4.12;nan;102148.81;4998510;28;20117;-77
2021/04/18 03:36:15;;;;;;;44.28;14.80;;;;;;;4.14;nan;102151.31;4996853;28;20117;-77
2021/04/18 03:38:41;;;;;;;35.10;15.43;;;;;;;4.09;nan;102148.31;4979735;28;20041;-79
2021/04/18 03:41:06;;;;;;;44.42;16.17;;;;;;;4.07;nan;102140.53;4997696;28;20022;-77
2021/04/18 03:43:32;;;;;;;42.15;14.98;;;;;;;4.03;nan;102136.56;4990371;28;20357;-77
2021/04/18 03:45:57;;;;;;;36.72;15.05;;;;;;;4.10;nan;102144.66;4994222;28;20617;-76
2021/04/18 03:48:24;;;;;;;41.22;16.73;;;;;;;4.19;nan;102154.25;4986387;28;20014;-77
2021/04/18 03:50:49;;;;;;;39.97;16.13;;;;;;;4.29;nan;102154.88;4994328;28;20081;-77
2021/04/18 03:53:15;;;;;;;61.33;19.48;;;;;;;4.33;nan;102155.38;4979387;28;20033;-76
2021/04/18 03:55:40;;;;;;;49.65;19.15;;;;;;;4.32;nan;102151.91;4996117;28;20025;-79
2021/04/18 03:58:06;;;;;;;57.60;20.15;;;;;;;4.35;nan;102156.84;4997572;28;20532;-78
2021/04/18 04:00:32;;;;;;;71.07;21.92;;;;;;;4.35;nan;102164.81;5002003;28;20041;-77
2021/04/18 04:02:58;;;;;;;94.07;23.52;;;;;;;4.37;nan;102156.69;4991212;28;20032;-76
2021/04/18 04:05:23;;;;;;;58.67;21.60;;;;;;;4.40;nan;102157.16;4980490;28;20022;-79
2021/04/18 04:07:49;;;;;;;77.47;22.60;;;;;;;4.30;nan;102163.66;4993964;28;20038;-77
2021/04/18 04:10:15;;;;;;;79.28;22.90;;;;;;;4.38;nan;102167.13;4997899;28;20045;-79
2021/04/18 04:12:40;;;;;;;75.22;24.23;;;;;;;4.46;nan;102166.25;4996410;28;20421;-77
2021/04/18 04:15:06;;;;;;;65.07;22.35;;;;;;;4.47;nan;102162.59;4976008;28;20023;-78
2021/04/18 04:17:32;;;;;;;57.58;20.90;;;;;;;4.53;nan;102160.09;4995790;28;20033;-77
2021/04/18 04:19:57;;;;;;;55.75;21.33;;;;;;;4.60;nan;102152.25;5000464;28;20064;-77
2021/04/18 04:22:23;;;;;;;57.28;22.20;;;;;;;4.59;nan;102145.28;5006013;28;20029;-77
2021/04/18 04:24:51;;;;;;;60.92;21.02;;;;;;;4.62;nan;102165.34;4992249;28;20041;-78
2021/04/18 04:27:16;;;;;;;57.22;19.65;;;;;;;4.63;nan;102159.84;4998715;28;20041;-79
2021/04/18 04:29:42;;;;;;;41.88;16.95;;;;;;;4.69;nan;102155.69;5004633;28;20022;-77
2021/04/18 04:32:08;;;;;;;61.10;20.65;;;;;;;4.69;nan;102153.03;4986129;28;20026;-79
2021/04/18 04:34:34;;;;;;;52.95;21.02;;;;;;;4.72;nan;102160.66;4986933;28;20045;-77
2021/04/18 04:37:00;;;;;;;53.90;19.67;;;;;;;4.75;nan;102149.69;5005360;28;20411;-77
2021/04/18 04:39:25;;;;;;;49.78;18.30;;;;;;;4.80;nan;102145.47;4990950;28;20937;-78
2021/04/18 04:41:51;;;;;;;48.65;19.38;;;;;;;4.81;nan;102143.66;4994843;28;20057;-77
2021/04/18 04:44:16;;;;;;;49.50;18.15;;;;;;;4.87;nan;102150.94;4986580;28;20041;-78
2021/04/18 04:46:46;;;;;;;49.90;18.75;;;;;;;4.92;nan;102140.59;4983792;28;20065;-77
2021/04/18 04:49:12;;;;;;;54.05;20.00;;;;;;;5.00;nan;102137.06;4986575;28;20521;-77
2021/04/18 04:51:38;;;;;;;49.88;19.52;;;;;;;5.06;nan;102153.13;5006289;28;20149;-78
2021/04/18 04:54:04;;;;;;;55.67;19.98;;;;;;;5.05;nan;102161.28;5005079;28;20022;-78
2021/04/18 04:56:30;;;;;;;80.30;23.33;;;;;;;5.07;nan;102169.88;4987855;28;20036;-77
2021/04/18 04:58:56;;;;;;;70.75;22.05;;;;;;;5.13;nan;102174.50;4981655;28;20418;-77
2021/04/18 05:01:21;;;;;;;60.92;21.35;;;;;;;5.12;nan;102181.63;5001513;28;20041;-78
2021/04/18 05:03:47;;;;;;;56.65;20.30;;;;;;;5.12;nan;102186.94;5006511;28;20234;-77
2021/04/18 05:06:12;;;;;;;48.95;18.50;;;;;;;5.09;nan;102178.50;4996601;28;20492;-77
2021/04/18 05:08:39;;;;;;;63.50;20.77;;;;;;;5.09;nan;102178.50;5004151;28;20535;-77
2021/04/18 05:11:04;;;;;;;45.53;18.83;;;;;;;5.12;nan;102183.47;4998891;28;20034;-77
2021/04/18 05:13:30;;;;;;;64.00;21.70;;;;;;;5.12;nan;102176.31;5002317;28;20496;-77
2021/04/18 05:15:56;;;;;;;66.93;20.80;;;;;;;5.08;nan;102164.41;5003063;28;20034;-78
2021/04/18 05:18:22;;;;;;;50.88;18.20;;;;;;;5.22;nan;102154.00;4996546;28;20465;-77
2021/04/18 05:20:47;;;;;;;55.65;19.85;;;;;;;5.21;nan;102163.81;4981200;28;20029;-77
2021/04/18 05:23:13;;;;;;;57.58;22.00;;;;;;;5.26;nan;102155.31;4988134;28;20044;-80
2021/04/18 05:25:38;;;;;;;72.35;22.45;;;;;;;5.31;nan;102155.56;5005552;28;20530;-77
2021/04/18 05:28:04;;;;;;;63.22;21.70;;;;;;;5.28;nan;102155.94;5003949;28;20046;-78
2021/04/18 05:30:29;;;;;;;69.95;24.67;;;;;;;5.32;nan;102159.88;4986650;28;20034;-78
2021/04/18 05:32:55;;;;;;;63.58;22.50;;;;;;;5.38;nan;102153.84;4997653;28;20088;-77
2021/04/18 05:35:20;;;;;;;73.63;25.00;;;;;;;5.42;nan;102160.47;4978667;28;20058;-77
2021/04/18 05:37:46;;;;;;;70.63;23.50;;;;;;;5.44;nan;102161.13;4998815;28;20029;-77
2021/04/18 05:40:12;;;;;;;78.22;26.70;;;;;;;5.53;nan;102170.66;4990073;28;20041;-79
2021/04/18 05:42:38;;;;;;;73.95;26.02;;;;;;;5.58;nan;102167.50;4996866;28;20044;-77
2021/04/18 05:45:05;;;;;;;78.85;25.88;;;;;;;5.61;nan;102167.94;4985591;28;20060;-77
2021/04/18 05:47:31;;;;;;;70.88;25.65;;;;;;;5.61;nan;102157.31;4975917;28;20064;-78
2021/04/18 05:49:56;;;;;;;65.32;25.25;;;;;;;5.71;nan;102157.88;4995745;28;20065;-77
2021/04/18 05:52:22;;;;;;;67.82;24.55;;;;;;;5.71;nan;102162.34;4977283;28;20022;-78
2021/04/18 05:54:47;;;;;;;72.35;23.25;;;;;;;5.80;nan;102160.47;5008325;28;20026;-77
2021/04/18 05:57:13;;;;;;;73.07;24.77;;;;;;;5.86;nan;102151.75;4988599;28;20488;-79
2021/04/18 05:59:38;;;;;;;62.83;23.02;;;;;;;5.93;nan;102166.00;5004567;28;20048;-79
2021/04/18 06:02:04;;;;;;;62.15;23.63;;;;;;;6.03;nan;102150.59;5006111;28;20348;-77
2021/04/18 06:04:30;;;;;;;63.25;23.77;;;;;;;6.17;nan;102151.59;4985870;28;20025;-77
2021/04/18 06:06:55;;;;;;;57.67;21.92;;;;;;;6.19;nan;102161.03;5002411;28;20037;-77
2021/04/18 06:09:21;;;;;;;59.08;21.67;;;;;;;6.19;nan;102153.06;5001177;28;20026;-80
2021/04/18 06:11:47;;;;;;;63.40;23.67;;;;;;;6.11;nan;102147.84;5011923;28;20034;-78
2021/04/18 06:14:12;;;;;;;74.85;24.55;;;;;;;6.13;nan;102140.50;5005625;28;20597;-78
2021/04/18 06:16:38;;;;;;;75.18;25.05;;;;;;;6.14;nan;102141.31;4984641;28;20400;-78
2021/04/18 06:19:03;;;;;;;77.55;27.77;;;;;;;5.97;nan;102124.72;4982142;28;20027;-77
2021/04/18 06:21:29;;;;;;;75.22;25.95;;;;;;;5.90;nan;102118.47;4997106;28;20029;-77
2021/04/18 06:23:55;;;;;;;78.78;27.67;;;;;;;5.89;nan;102122.09;5000165;28;20038;-77
2021/04/18 06:26:20;;;;;;;81.47;26.48;;;;;;;5.76;nan;102120.94;4999722;28;20021;-78
2021/04/18 06:28:46;;;;;;;95.35;29.63;;;;;;;5.83;nan;102115.69;4996450;28;20026;-77
2021/04/18 06:31:11;;;;;;;79.93;24.73;;;;;;;5.85;nan;102112.84;5002949;28;20032;-77
2021/04/18 06:33:37;;;;;;;78.90;25.95;;;;;;;5.76;nan;102104.97;5003501;28;20505;-78
2021/04/18 06:36:03;;;;;;;84.57;25.25;;;;;;;5.92;nan;102108.47;4999043;28;20029;-78
2021/04/18 06:38:28;;;;;;;80.75;25.70;;;;;;;5.71;nan;102106.50;5002805;28;20044;-77
2021/04/18 06:40:55;;;;;;;65.28;24.55;;;;;;;5.94;nan;102101.97;4996528;28;20030;-78
2021/04/18 06:43:22;;;;;;;84.13;27.23;;;;;;;6.09;nan;102117.91;4981525;28;20459;-78
2021/04/18 06:45:54;;;;;;;71.32;25.60;;;;;;;6.13;nan;102124.53;4998433;28;20018;-77
2021/04/18 06:48:21;;;;;;;75.43;25.15;;;;;;;6.24;nan;102140.00;4997861;28;20037;-77
2021/04/18 06:50:47;;;;;;;81.35;26.42;;;;;;;6.27;nan;102184.88;5000492;28;20407;-77
2021/04/18 06:53:13;;;;;;;72.05;27.15;;;;;;;6.14;nan;102192.72;4998585;28;20025;-78
2021/04/18 06:55:39;;;;;;;72.75;27.13;;;;;;;6.11;nan;102190.44;4998002;28;20046;-79
2021/04/18 06:58:05;;;;;;;87.43;29.65;;;;;;;6.11;nan;102179.78;4982443;28;20033;-77
2021/04/18 07:00:32;;;;;;;76.60;26.92;;;;;;;6.16;nan;102174.72;4999416;28;20030;-80
2021/04/18 07:03:10;;;;;;;86.80;28.77;;;;;;;6.22;nan;102173.16;4978537;28;20665;-76
2021/04/18 07:05:45;;;;;;;72.57;25.17;;;;;;;6.41;nan;102177.06;4998757;28;20038;-76
2021/04/18 07:08:30;;;;;;;67.53;25.23;;;;;;;6.60;nan;102173.84;4974799;28;20302;-80
2021/04/18 07:11:10;;;;;;;65.50;24.63;;;;;;;6.66;nan;102181.09;4975070;28;20137;-78
2021/04/18 07:13:37;;;;;;;72.20;26.20;;;;;;;6.74;nan;102178.31;4994793;28;20040;-77
2021/04/18 07:16:03;;;;;;;71.28;24.58;;;;;;;6.77;nan;102179.75;4987427;28;20026;-77
2021/04/18 07:18:41;;;;;;;65.68;23.83;;;;;;;6.79;nan;102178.56;5005770;28;20041;-77
2021/04/18 07:21:07;;;;;;;50.45;20.65;;;;;;;6.84;nan;102172.69;5003868;28;20022;-77
2021/04/18 07:23:34;;;;;;;49.65;21.58;;;;;;;6.89;nan;102168.44;4986715;28;20022;-78
2021/04/18 07:26:17;;;;;;;50.88;21.67;;;;;;;6.98;nan;102161.97;5006638;28;20018;-80
2021/04/18 07:28:42;;;;;;;51.25;21.70;;;;;;;7.18;nan;102156.84;4996370;28;20462;-77
2021/04/18 07:31:08;;;;;;;54.83;23.80;;;;;;;7.39;nan;102148.00;4988129;28;20030;-77
2021/04/18 07:33:33;;;;;;;50.78;20.75;;;;;;;7.61;nan;102162.13;4985928;28;20034;-77
2021/04/18 07:35:59;;;;;;;44.45;19.63;;;;;;;7.90;nan;102153.09;4981351;28;20084;-77
2021/04/18 07:38:29;;;;;;;43.38;18.30;;;;;;;8.12;nan;102151.97;4980085;28;20614;-77
2021/04/18 07:41:15;;;;;;;42.97;17.45;;;;;;;8.41;nan;102158.09;4978747;28;20042;-79
2021/04/18 07:43:43;;;;;;;38.00;19.45;;;;;;;8.71;nan;102148.75;4984850;28;20025;-78
2021/04/18 07:46:09;;;;;;;41.58;18.95;;;;;;;8.99;nan;102139.78;5004889;28;20026;-77
2021/04/18 07:48:35;;;;;;;44.47;18.90;;;;;;;8.99;nan;102145.94;4998951;28;20091;-77
2021/04/18 07:51:01;;;;;;;43.22;21.00;;;;;;;9.18;nan;102144.31;4996268;28;20135;-77
2021/04/18 07:53:27;;;;;;;40.78;20.95;;;;;;;9.52;nan;102131.78;4978940;28;20091;-77
2021/04/18 07:55:53;;;;;;;39.72;19.35;;;;;;;9.73;nan;102125.34;4992865;28;20026;-77
2021/04/18 07:58:18;;;;;;;35.42;17.10;;;;;;;9.78;nan;102133.56;4979051;28;20528;-77
2021/04/18 08:00:44;;;;;;;34.40;17.02;;;;;;;9.77;nan;102137.28;4994333;28;20042;-78
2021/04/18 08:03:13;;;;;;;29.35;16.70;;;;;;;9.94;nan;102141.16;4994094;28;20159;-77
2021/04/18 08:05:39;;;;;;;36.00;18.27;;;;;;;9.91;nan;102137.06;4997683;28;20022;-79
2021/04/18 08:08:10;;;;;;;33.63;17.98;;;;;;;9.51;nan;102132.78;4975946;28;20034;-78
2021/04/18 08:10:42;;;;;;;31.05;16.52;;;;;;;9.51;nan;102135.44;4973247;28;20308;-77
2021/04/18 08:13:19;;;;;;;30.38;15.48;;;;;;;9.59;nan;102136.06;4993936;28;20339;-77
2021/04/18 08:15:54;;;;;;;31.30;17.35;;;;;;;9.57;nan;102140.00;4994407;28;20030;-78
2021/04/18 08:18:31;;;;;;;31.30;15.95;;;;;;;9.76;nan;102136.47;4995411;28;20030;-79
2021/04/18 08:20:58;;;;;;;33.55;16.30;;;;;;;9.88;nan;102140.16;4973756;28;20103;-78
2021/04/18 08:23:35;;;;;;;33.58;16.73;;;;;;;10.05;nan;102134.31;4975509;28;20319;-80
2021/04/18 08:26:04;;;;;;;35.42;16.35;;;;;;;10.12;nan;102135.97;4977336;28;20079;-77
2021/04/18 08:28:30;;;;;;;35.25;16.75;;;;;;;10.12;nan;102145.84;4995475;28;20030;-80
2021/04/18 08:31:04;;;;;;;38.17;17.67;;;;;;;10.02;nan;102137.44;4997485;28;20132;-78
2021/04/18 08:33:38;;;;;;;38.53;17.58;;;;;;;9.88;nan;102142.84;4977909;28;20095;-78
2021/04/18 08:36:27;;;;;;;41.58;18.67;;;;;;;9.72;nan;102140.59;4991543;28;20034;-78
2021/04/18 08:38:59;;;;;;;41.85;19.25;;;;;;;9.62;nan;102137.50;4981959;28;20092;-78
2021/04/18 08:41:38;;;;;;;46.90;20.90;;;;;;;9.55;nan;102144.72;4988835;28;20270;-78
2021/04/18 08:44:27;;;;;;;46.75;20.40;;;;;;;9.58;nan;102133.59;4992571;28;20026;-77
2021/04/18 08:47:00;;;;;;;54.20;23.27;;;;;;;9.61;nan;102133.19;4992681;28;20026;-77
2021/04/18 08:49:35;;;;;;;56.92;25.98;;;;;;;9.86;nan;102131.47;4992942;28;20065;-80
2021/04/18 08:52:05;;;;;;;58.00;26.50;;;;;;;10.02;nan;102127.53;4972388;28;20037;-78
2021/04/18 08:54:36;;;;;;;47.13;24.25;;;;;;;10.02;nan;102124.03;4998653;28;22058;-78
2021/04/18 08:57:09;;;;;;;54.40;24.00;;;;;;;10.02;nan;102113.31;4997547;28;20465;-80
2021/04/18 08:59:35;;;;;;;52.85;23.02;;;;;;;9.85;nan;102108.44;4978884;28;20559;-77
2021/04/18 09:02:06;;;;;;;56.15;23.50;;;;;;;9.98;nan;102113.75;4973322;28;20026;-77
2021/04/18 09:04:44;;;;;;;52.78;24.20;;;;;;;10.05;nan;102113.72;4999483;28;20057;-78
2021/04/18 09:07:19;;;;;;;48.22;22.17;;;;;;;9.85;nan;102124.50;4982974;28;20948;-80
2021/04/18 09:09:46;;;;;;;46.22;23.48;;;;;;;9.79;nan;102121.84;4996662;28;20407;-77
2021/04/18 09:12:14;;;;;;;55.75;24.25;;;;;;;9.73;nan;102128.84;4998755;28;20500;-78
2021/04/18 09:14:43;;;;;;;60.00;26.65;;;;;;;9.61;nan;102122.47;5000145;28;20088;-77
2021/04/18 09:17:14;;;;;;;59.53;26.48;;;;;;;9.56;nan;102119.63;5001557;28;20029;-79
2021/04/18 09:19:41;;;;;;;68.57;30.00;;;;;;;9.63;nan;102113.22;4985069;28;20034;-78
2021/04/18 09:22:09;;;;;;;64.10;29.75;;;;;;;9.81;nan;102117.09;5003548;28;20050;-78
2021/04/18 09:24:41;;;;;;;64.30;32.83;;;;;;;9.72;nan;102118.38;4978734;28;20087;-79
2021/04/18 09:27:28;;;;;;;57.67;30.92;;;;;;;9.74;nan;102122.47;4994515;28;20484;-79
2021/04/18 09:29:59;;;;;;;54.50;27.17;;;;;;;9.70;nan;102123.94;4994285;28;20050;-78
2021/04/18 09:32:33;;;;;;;51.33;28.42;;;;;;;9.76;nan;102116.91;4993684;28;20618;-77
2021/04/18 09:34:58;;;;;;;42.65;23.90;;;;;;;10.06;nan;102115.41;4994089;28;20033;-77
2021/04/18 09:37:28;;;;;;;38.10;22.00;;;;;;;10.17;nan;102105.84;4996663;28;20496;-77
2021/04/18 09:39:59;;;;;;;32.15;19.73;;;;;;;10.28;nan;102103.38;4994079;28;20034;-79
2021/04/18 09:42:26;;;;;;;23.73;15.75;;;;;;;10.52;nan;102109.03;4990351;28;20104;-77
2021/04/18 09:44:54;;;;;;;26.17;15.07;;;;;;;10.52;nan;102107.16;4980832;28;20038;-79
2021/04/18 09:47:26;;;;;;;20.13;12.27;;;;;;;10.66;nan;102113.28;4994274;28;20057;-78
2021/04/18 09:50:00;;;;;;;21.17;12.38;;;;;;;10.66;nan;102115.97;4991113;28;20393;-79
2021/04/18 09:52:28;;;;;;;54.53;32.50;;;;;;;10.55;nan;102120.13;4975757;28;20116;-78
2021/04/18 09:55:05;;;;;;;38.08;22.52;;;;;;;10.79;nan;102120.44;4991259;28;20034;-79
2021/04/18 09:57:43;;;;;;;25.90;17.13;;;;;;;10.70;nan;102127.91;4977753;28;20084;-77
2021/04/18 10:00:15;;;;;;;22.73;15.32;;;;;;;10.47;nan;102128.44;4972795;28;20427;-78
2021/04/18 10:02:41;;;;;;;28.08;17.77;;;;;;;10.62;nan;102133.53;4973117;28;20482;-78
2021/04/18 10:05:11;;;;;;;27.30;15.95;;;;;;;10.65;nan;102129.59;4977963;28;20026;-77
2021/04/18 10:07:37;;;;;;;28.38;18.52;;;;;;;10.42;nan;102127.44;4996840;28;20058;-80
2021/04/18 10:10:03;;;;;;;27.65;17.67;;;;;;;10.47;nan;102127.63;4974185;28;20030;-77
2021/04/18 10:12:29;;;;;;;31.25;19.58;;;;;;;10.40;nan;102124.94;4998761;28;20026;-79
2021/04/18 10:15:06;;;;;;;28.23;19.27;;;;;;;10.48;nan;102123.91;4990553;28;20034;-79
2021/04/18 10:17:33;;;;;;;31.27;19.25;;;;;;;10.53;nan;102121.41;4991554;28;20038;-79
2021/04/18 10:19:59;;;;;;;33.40;18.88;;;;;;;10.60;nan;102119.53;4997195;28;20044;-77
2021/04/18 10:22:24;;;;;;;32.85;19.90;;;;;;;10.84;nan;102118.75;4998530;28;20026;-78
2021/04/18 10:24:50;;;;;;;32.83;18.55;;;;;;;10.83;nan;102117.09;4979326;28;20403;-77
2021/04/18 10:27:22;;;;;;;29.15;17.83;;;;;;;10.82;nan;102123.50;4997998;28;20368;-80
2021/04/18 10:29:48;;;;;;;31.15;17.48;;;;;;;10.94;nan;102118.25;4986168;28;20034;-79
2021/04/18 10:32:15;;;;;;;30.08;18.58;;;;;;;10.79;nan;102115.06;4997734;28;20038;-80
2021/04/18 10:34:41;;;;;;;31.88;17.77;;;;;;;10.93;nan;102115.78;4977111;28;20037;-80
2021/04/18 10:37:07;;;;;;;31.85;18.02;;;;;;;11.01;nan;102123.59;4997702;28;20214;-77
2021/04/18 10:39:33;;;;;;;30.63;17.63;;;;;;;11.15;nan;102114.41;4996035;28;20038;-77
2021/04/18 10:41:59;;;;;;;33.05;19.20;;;;;;;11.10;nan;102111.53;4991027;28;20030;-78
2021/04/18 10:44:25;;;;;;;31.70;19.38;;;;;;;11.01;nan;102108.31;4974351;28;20030;-77
2021/04/18 10:46:53;;;;;;;30.02;18.00;;;;;;;11.14;nan;102107.41;4976571;28;20546;-77
2021/04/18 10:49:18;;;;;;;38.13;19.85;;;;;;;11.12;nan;102104.91;4975635;28;20028;-77
2021/04/18 10:51:44;;;;;;;34.90;20.95;;;;;;;11.26;nan;102104.81;4980536;28;20033;-78
2021/04/18 10:54:10;;;;;;;33.45;20.00;;;;;;;11.47;nan;102107.09;4997532;28;20040;-77
2021/04/18 10:56:36;;;;;;;32.25;19.38;;;;;;;11.59;nan;102110.69;4994689;28;20034;-78
2021/04/18 10:59:03;;;;;;;31.20;19.08;;;;;;;11.68;nan;102114.75;4993058;28;20045;-78
2021/04/18 11:01:29;;;;;;;34.25;19.40;;;;;;;11.85;nan;102119.53;4994096;28;20161;-77
2021/04/18 11:03:54;;;;;;;32.05;18.58;;;;;;;12.15;nan;102112.38;4996742;28;20038;-81
2021/04/18 11:06:20;;;;;;;34.88;20.13;;;;;;;12.35;nan;102121.03;4994480;28;20054;-78
2021/04/18 11:08:45;;;;;;;35.20;20.25;;;;;;;12.54;nan;102110.25;4994680;28;20109;-78
2021/04/18 11:11:11;;;;;;;30.13;18.02;;;;;;;12.79;nan;102112.78;4997428;28;20109;-78
2021/04/18 11:13:38;;;;;;;32.60;19.20;;;;;;;13.14;nan;102111.00;4994588;28;20037;-78
2021/04/18 11:16:05;;;;;;;36.15;20.42;;;;;;;13.41;nan;102103.31;4996925;28;20038;-78
2021/04/18 11:18:30;;;;;;;35.33;19.45;;;;;;;13.46;nan;102097.22;4992412;28;20022;-74
2021/04/18 11:20:56;;;;;;;31.55;18.50;;;;;;;13.74;nan;102101.91;5000109;28;20038;-74
2021/04/18 11:23:22;;;;;;;31.38;19.42;;;;;;;13.74;nan;102091.13;4994454;28;20049;-74
2021/04/18 11:25:47;;;;;;;34.78;19.38;;;;;;;13.94;nan;102086.19;4976061;28;20023;-75
2021/04/18 11:28:13;;;;;;;31.75;18.80;;;;;;;13.82;nan;102088.06;4994831;28;20445;-75
2021/04/18 11:30:38;;;;;;;38.80;20.85;;;;;;;13.85;nan;102084.94;4994482;28;20061;-75
2021/04/18 11:33:04;;;;;;;47.40;23.42;;;;;;;13.45;nan;102088.34;4992122;28;20022;-75